sensor_id;sensor_type;location;lat;lon;timestamp;P1;durP1;ratioP1;P2;durP2;ratioP2
45342;SDS011;31077;50.872;4.352;2023-02-11T00:01:27;5.03;;;2.60;;
45342;SDS011;31077;50.872;4.352;2023-02-11T00:03:54;6.18;;;2.97;;
45342;SDS011;31077;50.872;4.352;2023-02-11T00:06:22;6.10;;;3.17;;
45342;SDS011;31077;50.872;4.352;2023-02-11T00:08:48;4.68;;;2.92;;
45342;SDS011;31077;50.872;4.352;2023-02-11T00:11:16;7.72;;;3.45;;
45342;SDS011;31077;50.872;4.352;2023-02-11T00:13:43;5.20;;;2.90;;
45342;SDS011;31077;50.872;4.352;2023-02-11T00:16:11;4.78;;;2.50;;
45342;SDS011;31077;50.872;4.352;2023-02-11T00:18:38;4.72;;;2.72;;
45342;SDS011;31077;50.872;4.352;2023-02-11T00:21:11;6.82;;;2.42;;
45342;SDS011;31077;50.872;4.352;2023-02-11T00:23:39;4.82;;;2.92;;
45342;SDS011;31077;50.872;4.352;2023-02-11T00:28:42;5.25;;;2.70;;
45342;SDS011;31077;50.872;4.352;2023-02-11T00:31:08;7.00;;;2.90;;
45342;SDS011;31077;50.872;4.352;2023-02-11T00:33:34;5.35;;;2.60;;
45342;SDS011;31077;50.872;4.352;2023-02-11T00:36:04;4.57;;;2.80;;
45342;SDS011;31077;50.872;4.352;2023-02-11T00:38:33;4.93;;;2.65;;
45342;SDS011;31077;50.872;4.352;2023-02-11T00:40:59;4.60;;;2.67;;
45342;SDS011;31077;50.872;4.352;2023-02-11T00:43:25;4.32;;;2.53;;
45342;SDS011;31077;50.872;4.352;2023-02-11T00:45:51;3.35;;;2.20;;
45342;SDS011;31077;50.872;4.352;2023-02-11T00:48:17;5.05;;;2.80;;
45342;SDS011;31077;50.872;4.352;2023-02-11T00:50:42;6.18;;;2.60;;
45342;SDS011;31077;50.872;4.352;2023-02-11T00:53:08;4.63;;;2.53;;
45342;SDS011;31077;50.872;4.352;2023-02-11T00:55:34;4.70;;;1.73;;
45342;SDS011;31077;50.872;4.352;2023-02-11T00:58:00;4.95;;;2.72;;
45342;SDS011;31077;50.872;4.352;2023-02-11T01:00:26;4.22;;;2.50;;
45342;SDS011;31077;50.872;4.352;2023-02-11T01:02:52;4.78;;;2.22;;
45342;SDS011;31077;50.872;4.352;2023-02-11T01:05:18;4.72;;;2.33;;
45342;SDS011;31077;50.872;4.352;2023-02-11T01:07:44;5.05;;;2.78;;
45342;SDS011;31077;50.872;4.352;2023-02-11T01:10:10;4.03;;;2.55;;
45342;SDS011;31077;50.872;4.352;2023-02-11T01:12:37;5.05;;;2.38;;
45342;SDS011;31077;50.872;4.352;2023-02-11T01:15:02;4.25;;;2.42;;
45342;SDS011;31077;50.872;4.352;2023-02-11T01:17:29;5.03;;;2.33;;
45342;SDS011;31077;50.872;4.352;2023-02-11T01:19:55;5.78;;;2.03;;
45342;SDS011;31077;50.872;4.352;2023-02-11T01:22:21;4.03;;;2.10;;
45342;SDS011;31077;50.872;4.352;2023-02-11T01:24:46;6.22;;;2.65;;
45342;SDS011;31077;50.872;4.352;2023-02-11T01:27:12;4.72;;;2.17;;
45342;SDS011;31077;50.872;4.352;2023-02-11T01:29:38;3.33;;;2.00;;
45342;SDS011;31077;50.872;4.352;2023-02-11T01:32:04;4.65;;;2.60;;
45342;SDS011;31077;50.872;4.352;2023-02-11T01:34:30;3.92;;;2.13;;
45342;SDS011;31077;50.872;4.352;2023-02-11T01:36:56;4.90;;;2.20;;
45342;SDS011;31077;50.872;4.352;2023-02-11T01:39:23;5.25;;;2.83;;
45342;SDS011;31077;50.872;4.352;2023-02-11T01:41:50;3.78;;;1.92;;
45342;SDS011;31077;50.872;4.352;2023-02-11T01:46:50;3.25;;;2.08;;
45342;SDS011;31077;50.872;4.352;2023-02-11T01:49:19;3.90;;;2.25;;
45342;SDS011;31077;50.872;4.352;2023-02-11T01:52:09;3.97;;;1.92;;
45342;SDS011;31077;50.872;4.352;2023-02-11T01:54:54;4.57;;;2.30;;
45342;SDS011;31077;50.872;4.352;2023-02-11T01:57:43;4.85;;;2.28;;
45342;SDS011;31077;50.872;4.352;2023-02-11T02:08:22;3.22;;;1.73;;
45342;SDS011;31077;50.872;4.352;2023-02-11T02:10:50;3.97;;;2.20;;
45342;SDS011;31077;50.872;4.352;2023-02-11T02:13:20;3.08;;;1.75;;
45342;SDS011;31077;50.872;4.352;2023-02-11T02:15:50;3.63;;;1.73;;
45342;SDS011;31077;50.872;4.352;2023-02-11T02:23:56;3.13;;;1.73;;
45342;SDS011;31077;50.872;4.352;2023-02-11T02:29:25;3.40;;;2.15;;
45342;SDS011;31077;50.872;4.352;2023-02-11T02:37:31;4.88;;;2.08;;
45342;SDS011;31077;50.872;4.352;2023-02-11T02:40:06;3.97;;;1.98;;
45342;SDS011;31077;50.872;4.352;2023-02-11T02:42:37;2.92;;;1.50;;
45342;SDS011;31077;50.872;4.352;2023-02-11T02:45:06;3.75;;;1.67;;
45342;SDS011;31077;50.872;4.352;2023-02-11T02:47:33;4.68;;;2.00;;
45342;SDS011;31077;50.872;4.352;2023-02-11T02:49:59;5.63;;;1.85;;
45342;SDS011;31077;50.872;4.352;2023-02-11T02:55:01;4.50;;;1.90;;
45342;SDS011;31077;50.872;4.352;2023-02-11T03:03:04;3.90;;;2.03;;
45342;SDS011;31077;50.872;4.352;2023-02-11T03:06:01;3.75;;;1.92;;
45342;SDS011;31077;50.872;4.352;2023-02-11T03:08:42;4.22;;;1.98;;
45342;SDS011;31077;50.872;4.352;2023-02-11T03:11:22;14.18;;;2.08;;
45342;SDS011;31077;50.872;4.352;2023-02-11T03:13:49;4.78;;;2.05;;
45342;SDS011;31077;50.872;4.352;2023-02-11T03:16:20;3.92;;;1.83;;
45342;SDS011;31077;50.872;4.352;2023-02-11T03:18:52;4.95;;;2.10;;
45342;SDS011;31077;50.872;4.352;2023-02-11T03:21:24;4.35;;;1.70;;
45342;SDS011;31077;50.872;4.352;2023-02-11T03:23:52;6.93;;;2.50;;
45342;SDS011;31077;50.872;4.352;2023-02-11T03:26:31;7.20;;;2.03;;
45342;SDS011;31077;50.872;4.352;2023-02-11T03:29:01;7.03;;;2.13;;
45342;SDS011;31077;50.872;4.352;2023-02-11T03:31:45;12.95;;;3.38;;
45342;SDS011;31077;50.872;4.352;2023-02-11T03:34:39;4.43;;;2.00;;
45342;SDS011;31077;50.872;4.352;2023-02-11T03:40:28;4.30;;;2.10;;
45342;SDS011;31077;50.872;4.352;2023-02-11T03:43:01;4.63;;;2.00;;
45342;SDS011;31077;50.872;4.352;2023-02-11T03:45:32;4.68;;;1.60;;
45342;SDS011;31077;50.872;4.352;2023-02-11T03:48:07;3.60;;;1.60;;
45342;SDS011;31077;50.872;4.352;2023-02-11T03:50:38;7.70;;;2.13;;
45342;SDS011;31077;50.872;4.352;2023-02-11T03:53:05;7.53;;;2.30;;
45342;SDS011;31077;50.872;4.352;2023-02-11T03:55:33;6.68;;;2.08;;
45342;SDS011;31077;50.872;4.352;2023-02-11T03:58:02;3.38;;;1.88;;
45342;SDS011;31077;50.872;4.352;2023-02-11T04:00:36;3.97;;;1.95;;
45342;SDS011;31077;50.872;4.352;2023-02-11T04:03:04;3.60;;;1.90;;
45342;SDS011;31077;50.872;4.352;2023-02-11T04:05:30;3.95;;;2.10;;
45342;SDS011;31077;50.872;4.352;2023-02-11T04:07:56;3.80;;;2.00;;
45342;SDS011;31077;50.872;4.352;2023-02-11T04:10:22;7.03;;;1.92;;
45342;SDS011;31077;50.872;4.352;2023-02-11T04:12:48;4.05;;;2.00;;
45342;SDS011;31077;50.872;4.352;2023-02-11T04:15:13;7.63;;;2.45;;
45342;SDS011;31077;50.872;4.352;2023-02-11T04:17:39;5.95;;;2.15;;
45342;SDS011;31077;50.872;4.352;2023-02-11T04:20:05;4.10;;;2.10;;
45342;SDS011;31077;50.872;4.352;2023-02-11T04:22:31;3.47;;;1.88;;
45342;SDS011;31077;50.872;4.352;2023-02-11T04:24:56;4.97;;;1.92;;
45342;SDS011;31077;50.872;4.352;2023-02-11T04:27:22;5.32;;;1.70;;
45342;SDS011;31077;50.872;4.352;2023-02-11T04:29:48;5.38;;;2.00;;
45342;SDS011;31077;50.872;4.352;2023-02-11T04:32:14;3.90;;;2.00;;
45342;SDS011;31077;50.872;4.352;2023-02-11T04:34:40;3.30;;;1.85;;
45342;SDS011;31077;50.872;4.352;2023-02-11T04:37:06;4.57;;;2.20;;
45342;SDS011;31077;50.872;4.352;2023-02-11T04:39:32;4.85;;;2.08;;
45342;SDS011;31077;50.872;4.352;2023-02-11T04:41:58;4.53;;;1.73;;
45342;SDS011;31077;50.872;4.352;2023-02-11T04:44:24;6.05;;;1.88;;
45342;SDS011;31077;50.872;4.352;2023-02-11T04:46:50;3.97;;;1.90;;
45342;SDS011;31077;50.872;4.352;2023-02-11T04:49:16;3.92;;;1.75;;
45342;SDS011;31077;50.872;4.352;2023-02-11T04:51:42;3.03;;;1.75;;
45342;SDS011;31077;50.872;4.352;2023-02-11T04:54:11;3.05;;;1.55;;
45342;SDS011;31077;50.872;4.352;2023-02-11T04:56:37;6.90;;;2.30;;
45342;SDS011;31077;50.872;4.352;2023-02-11T04:59:03;3.03;;;1.58;;
45342;SDS011;31077;50.872;4.352;2023-02-11T05:01:30;3.20;;;1.80;;
45342;SDS011;31077;50.872;4.352;2023-02-11T05:03:55;4.32;;;1.80;;
45342;SDS011;31077;50.872;4.352;2023-02-11T05:06:21;4.38;;;1.98;;
45342;SDS011;31077;50.872;4.352;2023-02-11T05:08:47;5.65;;;2.17;;
45342;SDS011;31077;50.872;4.352;2023-02-11T05:11:15;5.55;;;2.03;;
45342;SDS011;31077;50.872;4.352;2023-02-11T05:13:46;5.45;;;2.17;;
45342;SDS011;31077;50.872;4.352;2023-02-11T05:16:12;5.75;;;2.03;;
45342;SDS011;31077;50.872;4.352;2023-02-11T05:18:38;4.00;;;1.92;;
45342;SDS011;31077;50.872;4.352;2023-02-11T05:21:10;3.97;;;2.05;;
45342;SDS011;31077;50.872;4.352;2023-02-11T05:23:37;3.88;;;1.88;;
45342;SDS011;31077;50.872;4.352;2023-02-11T05:26:04;4.28;;;2.03;;
45342;SDS011;31077;50.872;4.352;2023-02-11T05:28:30;4.55;;;1.83;;
45342;SDS011;31077;50.872;4.352;2023-02-11T05:30:56;3.20;;;1.92;;
45342;SDS011;31077;50.872;4.352;2023-02-11T05:33:22;4.20;;;2.00;;
45342;SDS011;31077;50.872;4.352;2023-02-11T05:35:48;6.15;;;2.28;;
45342;SDS011;31077;50.872;4.352;2023-02-11T05:38:14;4.28;;;2.00;;
45342;SDS011;31077;50.872;4.352;2023-02-11T05:40:40;4.57;;;2.03;;
45342;SDS011;31077;50.872;4.352;2023-02-11T05:43:06;3.72;;;1.90;;
45342;SDS011;31077;50.872;4.352;2023-02-11T05:45:31;4.80;;;2.22;;
45342;SDS011;31077;50.872;4.352;2023-02-11T05:47:57;3.13;;;2.00;;
45342;SDS011;31077;50.872;4.352;2023-02-11T05:50:23;5.75;;;2.00;;
45342;SDS011;31077;50.872;4.352;2023-02-11T05:52:49;4.78;;;2.00;;
45342;SDS011;31077;50.872;4.352;2023-02-11T05:55:15;4.15;;;1.92;;
45342;SDS011;31077;50.872;4.352;2023-02-11T05:57:41;3.95;;;1.95;;
45342;SDS011;31077;50.872;4.352;2023-02-11T06:00:07;4.72;;;1.80;;
45342;SDS011;31077;50.872;4.352;2023-02-11T06:02:34;4.18;;;1.67;;
45342;SDS011;31077;50.872;4.352;2023-02-11T06:04:59;4.43;;;2.13;;
45342;SDS011;31077;50.872;4.352;2023-02-11T06:07:25;3.35;;;1.75;;
45342;SDS011;31077;50.872;4.352;2023-02-11T06:09:51;4.47;;;2.13;;
45342;SDS011;31077;50.872;4.352;2023-02-11T06:12:17;3.75;;;1.90;;
45342;SDS011;31077;50.872;4.352;2023-02-11T06:14:43;4.57;;;2.17;;
45342;SDS011;31077;50.872;4.352;2023-02-11T06:17:09;2.53;;;1.67;;
45342;SDS011;31077;50.872;4.352;2023-02-11T06:19:35;3.17;;;1.80;;
45342;SDS011;31077;50.872;4.352;2023-02-11T06:22:01;4.15;;;1.88;;
45342;SDS011;31077;50.872;4.352;2023-02-11T06:24:27;2.97;;;1.75;;
45342;SDS011;31077;50.872;4.352;2023-02-11T06:26:52;5.28;;;2.30;;
45342;SDS011;31077;50.872;4.352;2023-02-11T06:29:18;4.82;;;2.40;;
45342;SDS011;31077;50.872;4.352;2023-02-11T06:31:44;6.85;;;2.67;;
45342;SDS011;31077;50.872;4.352;2023-02-11T06:34:10;4.88;;;2.20;;
45342;SDS011;31077;50.872;4.352;2023-02-11T06:36:37;5.68;;;2.30;;
45342;SDS011;31077;50.872;4.352;2023-02-11T06:39:05;5.53;;;2.20;;
45342;SDS011;31077;50.872;4.352;2023-02-11T06:41:31;4.47;;;2.40;;
45342;SDS011;31077;50.872;4.352;2023-02-11T06:43:57;5.95;;;2.63;;
45342;SDS011;31077;50.872;4.352;2023-02-11T06:46:23;6.07;;;2.20;;
45342;SDS011;31077;50.872;4.352;2023-02-11T06:48:49;6.05;;;3.08;;
45342;SDS011;31077;50.872;4.352;2023-02-11T06:51:14;3.53;;;1.90;;
45342;SDS011;31077;50.872;4.352;2023-02-11T06:53:42;4.15;;;2.00;;
45342;SDS011;31077;50.872;4.352;2023-02-11T06:56:10;4.40;;;2.13;;
45342;SDS011;31077;50.872;4.352;2023-02-11T06:58:37;5.85;;;2.88;;
45342;SDS011;31077;50.872;4.352;2023-02-11T07:01:03;4.28;;;2.22;;
45342;SDS011;31077;50.872;4.352;2023-02-11T07:03:35;4.30;;;2.38;;
45342;SDS011;31077;50.872;4.352;2023-02-11T07:06:02;7.28;;;2.58;;
45342;SDS011;31077;50.872;4.352;2023-02-11T07:08:29;4.53;;;2.90;;
45342;SDS011;31077;50.872;4.352;2023-02-11T07:10:59;4.53;;;2.85;;
45342;SDS011;31077;50.872;4.352;2023-02-11T07:13:25;4.20;;;2.40;;
45342;SDS011;31077;50.872;4.352;2023-02-11T07:15:50;6.15;;;2.60;;
45342;SDS011;31077;50.872;4.352;2023-02-11T07:18:16;4.22;;;2.85;;
45342;SDS011;31077;50.872;4.352;2023-02-11T07:20:42;4.72;;;2.70;;
45342;SDS011;31077;50.872;4.352;2023-02-11T07:23:08;4.53;;;2.50;;
45342;SDS011;31077;50.872;4.352;2023-02-11T07:25:34;7.18;;;3.33;;
45342;SDS011;31077;50.872;4.352;2023-02-11T07:28:00;5.85;;;2.47;;
45342;SDS011;31077;50.872;4.352;2023-02-11T07:30:26;3.58;;;2.55;;
45342;SDS011;31077;50.872;4.352;2023-02-11T07:32:51;4.00;;;2.58;;
45342;SDS011;31077;50.872;4.352;2023-02-11T07:35:17;6.00;;;3.22;;
45342;SDS011;31077;50.872;4.352;2023-02-11T07:37:43;5.80;;;3.05;;
45342;SDS011;31077;50.872;4.352;2023-02-11T07:40:09;6.18;;;3.03;;
45342;SDS011;31077;50.872;4.352;2023-02-11T07:42:35;5.43;;;2.92;;
45342;SDS011;31077;50.872;4.352;2023-02-11T07:45:01;7.05;;;3.08;;
45342;SDS011;31077;50.872;4.352;2023-02-11T07:47:27;5.38;;;3.10;;
45342;SDS011;31077;50.872;4.352;2023-02-11T07:49:53;6.32;;;3.22;;
45342;SDS011;31077;50.872;4.352;2023-02-11T07:52:18;5.70;;;2.95;;
45342;SDS011;31077;50.872;4.352;2023-02-11T07:54:44;6.22;;;3.33;;
45342;SDS011;31077;50.872;4.352;2023-02-11T07:57:10;6.47;;;3.20;;
45342;SDS011;31077;50.872;4.352;2023-02-11T07:59:36;4.93;;;2.90;;
45342;SDS011;31077;50.872;4.352;2023-02-11T08:02:02;5.10;;;3.05;;
45342;SDS011;31077;50.872;4.352;2023-02-11T08:04:27;5.63;;;2.70;;
45342;SDS011;31077;50.872;4.352;2023-02-11T08:06:53;5.13;;;3.05;;
45342;SDS011;31077;50.872;4.352;2023-02-11T08:09:21;7.32;;;3.03;;
45342;SDS011;31077;50.872;4.352;2023-02-11T08:11:46;4.00;;;2.65;;
45342;SDS011;31077;50.872;4.352;2023-02-11T08:14:12;7.70;;;3.45;;
45342;SDS011;31077;50.872;4.352;2023-02-11T08:16:38;4.57;;;3.08;;
45342;SDS011;31077;50.872;4.352;2023-02-11T08:19:06;6.63;;;2.95;;
45342;SDS011;31077;50.872;4.352;2023-02-11T08:21:35;8.52;;;2.90;;
45342;SDS011;31077;50.872;4.352;2023-02-11T08:24:02;5.43;;;2.90;;
45342;SDS011;31077;50.872;4.352;2023-02-11T08:26:29;37.15;;;5.40;;
45342;SDS011;31077;50.872;4.352;2023-02-11T08:28:58;60.42;;;8.70;;
45342;SDS011;31077;50.872;4.352;2023-02-11T08:31:26;63.33;;;8.65;;
45342;SDS011;31077;50.872;4.352;2023-02-11T08:33:55;73.05;;;12.02;;
45342;SDS011;31077;50.872;4.352;2023-02-11T08:36:27;70.60;;;12.00;;
45342;SDS011;31077;50.872;4.352;2023-02-11T08:38:55;111.85;;;15.50;;
45342;SDS011;31077;50.872;4.352;2023-02-11T08:41:21;109.78;;;17.25;;
45342;SDS011;31077;50.872;4.352;2023-02-11T08:43:47;143.98;;;19.20;;
45342;SDS011;31077;50.872;4.352;2023-02-11T08:46:14;96.50;;;17.23;;
45342;SDS011;31077;50.872;4.352;2023-02-11T08:48:42;153.05;;;19.70;;
45342;SDS011;31077;50.872;4.352;2023-02-11T08:51:08;163.60;;;21.30;;
45342;SDS011;31077;50.872;4.352;2023-02-11T08:53:37;77.95;;;13.73;;
45342;SDS011;31077;50.872;4.352;2023-02-11T08:56:03;102.97;;;15.20;;
45342;SDS011;31077;50.872;4.352;2023-02-11T08:58:30;70.50;;;14.15;;
45342;SDS011;31077;50.872;4.352;2023-02-11T09:00:56;107.47;;;16.33;;
45342;SDS011;31077;50.872;4.352;2023-02-11T09:03:22;116.50;;;18.10;;
45342;SDS011;31077;50.872;4.352;2023-02-11T09:05:48;80.32;;;14.07;;
45342;SDS011;31077;50.872;4.352;2023-02-11T09:08:17;79.05;;;13.70;;
45342;SDS011;31077;50.872;4.352;2023-02-11T09:10:43;91.05;;;14.57;;
45342;SDS011;31077;50.872;4.352;2023-02-11T09:13:09;97.93;;;15.20;;
45342;SDS011;31077;50.872;4.352;2023-02-11T09:15:35;87.72;;;16.92;;
45342;SDS011;31077;50.872;4.352;2023-02-11T09:18:01;79.63;;;14.18;;
45342;SDS011;31077;50.872;4.352;2023-02-11T09:20:28;60.25;;;12.70;;
45342;SDS011;31077;50.872;4.352;2023-02-11T09:22:55;41.95;;;10.68;;
45342;SDS011;31077;50.872;4.352;2023-02-11T09:25:22;44.45;;;8.68;;
45342;SDS011;31077;50.872;4.352;2023-02-11T09:27:48;54.45;;;10.80;;
45342;SDS011;31077;50.872;4.352;2023-02-11T09:30:15;54.53;;;10.63;;
45342;SDS011;31077;50.872;4.352;2023-02-11T09:32:41;36.60;;;9.13;;
45342;SDS011;31077;50.872;4.352;2023-02-11T09:35:07;31.80;;;9.10;;
45342;SDS011;31077;50.872;4.352;2023-02-11T09:37:33;40.05;;;10.25;;
45342;SDS011;31077;50.872;4.352;2023-02-11T09:39:58;31.88;;;9.73;;
45342;SDS011;31077;50.872;4.352;2023-02-11T09:44:59;29.15;;;8.52;;
45342;SDS011;31077;50.872;4.352;2023-02-11T09:47:28;25.45;;;8.93;;
45342;SDS011;31077;50.872;4.352;2023-02-11T09:50:10;21.45;;;8.32;;
45342;SDS011;31077;50.872;4.352;2023-02-11T09:52:39;21.08;;;8.05;;
45342;SDS011;31077;50.872;4.352;2023-02-11T09:55:40;27.85;;;9.75;;
45342;SDS011;31077;50.872;4.352;2023-02-11T09:58:09;19.48;;;8.57;;
45342;SDS011;31077;50.872;4.352;2023-02-11T10:06:52;18.55;;;8.85;;
45342;SDS011;31077;50.872;4.352;2023-02-11T10:15:07;16.13;;;7.95;;
45342;SDS011;31077;50.872;4.352;2023-02-11T10:18:04;16.90;;;7.78;;
45342;SDS011;31077;50.872;4.352;2023-02-11T10:20:36;13.43;;;7.50;;
45342;SDS011;31077;50.872;4.352;2023-02-11T10:23:21;21.27;;;8.30;;
45342;SDS011;31077;50.872;4.352;2023-02-11T10:25:52;16.88;;;7.53;;
45342;SDS011;31077;50.872;4.352;2023-02-11T10:28:26;14.43;;;7.75;;
45342;SDS011;31077;50.872;4.352;2023-02-11T10:31:01;14.80;;;7.70;;
45342;SDS011;31077;50.872;4.352;2023-02-11T10:36:14;14.57;;;7.70;;
45342;SDS011;31077;50.872;4.352;2023-02-11T10:38:41;13.15;;;7.55;;
45342;SDS011;31077;50.872;4.352;2023-02-11T10:41:09;12.60;;;6.88;;
45342;SDS011;31077;50.872;4.352;2023-02-11T10:43:49;14.68;;;7.95;;
45342;SDS011;31077;50.872;4.352;2023-02-11T10:46:17;13.30;;;7.30;;
45342;SDS011;31077;50.872;4.352;2023-02-11T10:48:49;12.45;;;7.35;;
45342;SDS011;31077;50.872;4.352;2023-02-11T10:56:35;12.63;;;7.13;;
45342;SDS011;31077;50.872;4.352;2023-02-11T10:59:04;13.05;;;7.30;;
45342;SDS011;31077;50.872;4.352;2023-02-11T11:01:40;12.93;;;7.68;;
45342;SDS011;31077;50.872;4.352;2023-02-11T11:06:56;11.68;;;7.50;;
45342;SDS011;31077;50.872;4.352;2023-02-11T11:09:42;15.32;;;8.23;;
45342;SDS011;31077;50.872;4.352;2023-02-11T11:14:53;13.95;;;7.88;;
45342;SDS011;31077;50.872;4.352;2023-02-11T11:17:24;11.13;;;6.95;;
45342;SDS011;31077;50.872;4.352;2023-02-11T11:19:54;12.05;;;7.38;;
45342;SDS011;31077;50.872;4.352;2023-02-11T11:22:39;11.82;;;8.05;;
45342;SDS011;31077;50.872;4.352;2023-02-11T11:25:19;11.95;;;7.93;;
45342;SDS011;31077;50.872;4.352;2023-02-11T11:27:49;11.57;;;7.00;;
45342;SDS011;31077;50.872;4.352;2023-02-11T11:30:16;11.50;;;6.75;;
45342;SDS011;31077;50.872;4.352;2023-02-11T11:32:43;12.82;;;7.95;;
45342;SDS011;31077;50.872;4.352;2023-02-11T11:38:04;15.15;;;7.60;;
45342;SDS011;31077;50.872;4.352;2023-02-11T11:40:31;11.15;;;8.25;;
45342;SDS011;31077;50.872;4.352;2023-02-11T11:45:52;12.07;;;7.82;;
45342;SDS011;31077;50.872;4.352;2023-02-11T11:48:21;12.98;;;7.72;;
45342;SDS011;31077;50.872;4.352;2023-02-11T11:51:04;12.40;;;8.05;;
45342;SDS011;31077;50.872;4.352;2023-02-11T11:53:40;12.48;;;8.23;;
45342;SDS011;31077;50.872;4.352;2023-02-11T11:56:19;11.90;;;8.02;;
45342;SDS011;31077;50.872;4.352;2023-02-11T11:58:50;13.65;;;8.18;;
45342;SDS011;31077;50.872;4.352;2023-02-11T12:15:28;14.40;;;8.32;;
45342;SDS011;31077;50.872;4.352;2023-02-11T12:26:19;13.55;;;8.43;;
45342;SDS011;31077;50.872;4.352;2023-02-11T12:31:54;12.35;;;8.35;;
45342;SDS011;31077;50.872;4.352;2023-02-11T12:34:46;15.95;;;9.27;;
45342;SDS011;31077;50.872;4.352;2023-02-11T12:37:24;14.48;;;8.80;;
45342;SDS011;31077;50.872;4.352;2023-02-11T12:42:42;12.55;;;8.32;;
45342;SDS011;31077;50.872;4.352;2023-02-11T12:48:12;12.93;;;9.10;;
45342;SDS011;31077;50.872;4.352;2023-02-11T12:56:04;11.48;;;8.27;;
45342;SDS011;31077;50.872;4.352;2023-02-11T12:58:45;12.68;;;8.18;;
45342;SDS011;31077;50.872;4.352;2023-02-11T13:01:16;13.75;;;9.35;;
45342;SDS011;31077;50.872;4.352;2023-02-11T13:03:56;12.93;;;8.35;;
45342;SDS011;31077;50.872;4.352;2023-02-11T13:06:40;12.57;;;8.52;;
45342;SDS011;31077;50.872;4.352;2023-02-11T13:09:12;13.50;;;8.55;;
45342;SDS011;31077;50.872;4.352;2023-02-11T13:11:53;12.70;;;8.13;;
45342;SDS011;31077;50.872;4.352;2023-02-11T13:14:29;12.60;;;8.63;;
45342;SDS011;31077;50.872;4.352;2023-02-11T13:17:00;13.05;;;8.18;;
45342;SDS011;31077;50.872;4.352;2023-02-11T13:19:40;12.50;;;9.13;;
45342;SDS011;31077;50.872;4.352;2023-02-11T13:22:17;12.07;;;8.75;;
45342;SDS011;31077;50.872;4.352;2023-02-11T13:24:59;13.32;;;9.52;;
45342;SDS011;31077;50.872;4.352;2023-02-11T13:35:34;13.25;;;8.82;;
45342;SDS011;31077;50.872;4.352;2023-02-11T13:38:11;14.98;;;9.32;;
45342;SDS011;31077;50.872;4.352;2023-02-11T13:41:09;11.85;;;8.38;;
45342;SDS011;31077;50.872;4.352;2023-02-11T13:43:39;12.73;;;8.82;;
45342;SDS011;31077;50.872;4.352;2023-02-11T13:46:06;11.25;;;9.10;;
45342;SDS011;31077;50.872;4.352;2023-02-11T13:48:36;11.70;;;8.63;;
45342;SDS011;31077;50.872;4.352;2023-02-11T13:51:35;11.38;;;8.15;;
45342;SDS011;31077;50.872;4.352;2023-02-11T13:54:03;12.05;;;8.55;;
45342;SDS011;31077;50.872;4.352;2023-02-11T13:56:35;10.43;;;8.18;;
45342;SDS011;31077;50.872;4.352;2023-02-11T13:59:46;15.18;;;6.43;;
45342;SDS011;31077;50.872;4.352;2023-02-11T14:02:05;11.23;;;8.70;;
45342;SDS011;31077;50.872;4.352;2023-02-11T14:08:35;11.20;;;8.40;;
45342;SDS011;31077;50.872;4.352;2023-02-11T14:21:21;10.93;;;7.55;;
45342;SDS011;31077;50.872;4.352;2023-02-11T14:23:51;14.45;;;7.43;;
45342;SDS011;31077;50.872;4.352;2023-02-11T14:29:10;12.80;;;7.50;;
45342;SDS011;31077;50.872;4.352;2023-02-11T14:39:59;10.52;;;7.60;;
45342;SDS011;31077;50.872;4.352;2023-02-11T14:42:39;10.45;;;7.78;;
45342;SDS011;31077;50.872;4.352;2023-02-11T14:45:06;13.57;;;8.60;;
45342;SDS011;31077;50.872;4.352;2023-02-11T14:47:45;10.13;;;8.00;;
45342;SDS011;31077;50.872;4.352;2023-02-11T14:50:24;9.82;;;7.45;;
45342;SDS011;31077;50.872;4.352;2023-02-11T14:52:52;11.38;;;8.93;;
45342;SDS011;31077;50.872;4.352;2023-02-11T14:55:32;13.05;;;8.80;;
45342;SDS011;31077;50.872;4.352;2023-02-11T14:58:15;11.05;;;8.38;;
45342;SDS011;31077;50.872;4.352;2023-02-11T15:00:50;11.30;;;8.43;;
45342;SDS011;31077;50.872;4.352;2023-02-11T15:08:44;11.63;;;7.97;;
45342;SDS011;31077;50.872;4.352;2023-02-11T15:11:14;13.40;;;8.45;;
45342;SDS011;31077;50.872;4.352;2023-02-11T15:13:42;8.52;;;7.28;;
45342;SDS011;31077;50.872;4.352;2023-02-11T15:16:19;11.95;;;8.45;;
45342;SDS011;31077;50.872;4.352;2023-02-11T15:18:49;12.43;;;9.38;;
45342;SDS011;31077;50.872;4.352;2023-02-11T15:21:19;11.43;;;8.77;;
45342;SDS011;31077;50.872;4.352;2023-02-11T15:23:56;10.95;;;8.82;;
45342;SDS011;31077;50.872;4.352;2023-02-11T15:26:28;11.32;;;8.10;;
45342;SDS011;31077;50.872;4.352;2023-02-11T15:28:54;14.32;;;8.40;;
45342;SDS011;31077;50.872;4.352;2023-02-11T15:31:24;10.80;;;8.32;;
45342;SDS011;31077;50.872;4.352;2023-02-11T15:33:51;11.18;;;9.13;;
45342;SDS011;31077;50.872;4.352;2023-02-11T15:36:20;10.88;;;8.70;;
45342;SDS011;31077;50.872;4.352;2023-02-11T15:41:53;10.88;;;7.93;;
45342;SDS011;31077;50.872;4.352;2023-02-11T15:44:28;16.88;;;8.15;;
45342;SDS011;31077;50.872;4.352;2023-02-11T15:46:55;12.25;;;9.38;;
45342;SDS011;31077;50.872;4.352;2023-02-11T15:49:21;11.00;;;9.15;;
45342;SDS011;31077;50.872;4.352;2023-02-11T15:51:49;10.15;;;8.85;;
45342;SDS011;31077;50.872;4.352;2023-02-11T15:54:20;10.85;;;8.50;;
45342;SDS011;31077;50.872;4.352;2023-02-11T15:56:51;12.73;;;9.48;;
45342;SDS011;31077;50.872;4.352;2023-02-11T16:02:04;13.45;;;8.20;;
45342;SDS011;31077;50.872;4.352;2023-02-11T16:04:33;12.50;;;8.80;;
45342;SDS011;31077;50.872;4.352;2023-02-11T16:07:00;12.85;;;9.23;;
45342;SDS011;31077;50.872;4.352;2023-02-11T16:09:32;11.77;;;8.88;;
45342;SDS011;31077;50.872;4.352;2023-02-11T16:12:01;9.95;;;8.75;;
45342;SDS011;31077;50.872;4.352;2023-02-11T16:14:48;20.60;;;10.15;;
45342;SDS011;31077;50.872;4.352;2023-02-11T16:19:43;13.55;;;10.65;;
45342;SDS011;31077;50.872;4.352;2023-02-11T16:22:14;12.02;;;9.98;;
45342;SDS011;31077;50.872;4.352;2023-02-11T16:24:44;12.73;;;10.65;;
45342;SDS011;31077;50.872;4.352;2023-02-11T16:27:54;13.30;;;10.63;;
45342;SDS011;31077;50.872;4.352;2023-02-11T16:30:05;12.90;;;10.77;;
45342;SDS011;31077;50.872;4.352;2023-02-11T16:32:52;13.50;;;10.63;;
45342;SDS011;31077;50.872;4.352;2023-02-11T16:35:19;11.77;;;10.52;;
45342;SDS011;31077;50.872;4.352;2023-02-11T16:37:45;12.15;;;10.77;;
45342;SDS011;31077;50.872;4.352;2023-02-11T16:40:11;12.35;;;11.05;;
45342;SDS011;31077;50.872;4.352;2023-02-11T16:42:38;13.68;;;11.65;;
45342;SDS011;31077;50.872;4.352;2023-02-11T16:45:04;13.20;;;11.00;;
45342;SDS011;31077;50.872;4.352;2023-02-11T16:47:30;12.52;;;10.23;;
45342;SDS011;31077;50.872;4.352;2023-02-11T16:49:57;14.32;;;11.13;;
45342;SDS011;31077;50.872;4.352;2023-02-11T16:52:24;12.68;;;11.27;;
45342;SDS011;31077;50.872;4.352;2023-02-11T16:54:50;14.10;;;11.00;;
45342;SDS011;31077;50.872;4.352;2023-02-11T16:57:17;12.30;;;11.02;;
45342;SDS011;31077;50.872;4.352;2023-02-11T16:59:45;12.45;;;11.13;;
45342;SDS011;31077;50.872;4.352;2023-02-11T17:02:12;12.77;;;11.20;;
45342;SDS011;31077;50.872;4.352;2023-02-11T17:04:47;13.82;;;11.27;;
45342;SDS011;31077;50.872;4.352;2023-02-11T17:07:13;13.20;;;11.80;;
45342;SDS011;31077;50.872;4.352;2023-02-11T17:09:39;13.60;;;11.00;;
45342;SDS011;31077;50.872;4.352;2023-02-11T17:12:05;13.20;;;11.77;;
45342;SDS011;31077;50.872;4.352;2023-02-11T17:14:31;14.63;;;11.98;;
45342;SDS011;31077;50.872;4.352;2023-02-11T17:16:56;13.00;;;11.68;;
45342;SDS011;31077;50.872;4.352;2023-02-11T17:19:22;12.52;;;11.23;;
45342;SDS011;31077;50.872;4.352;2023-02-11T17:21:49;12.20;;;11.00;;
45342;SDS011;31077;50.872;4.352;2023-02-11T17:24:16;14.95;;;12.38;;
45342;SDS011;31077;50.872;4.352;2023-02-11T17:26:43;13.25;;;11.95;;
45342;SDS011;31077;50.872;4.352;2023-02-11T17:29:12;13.43;;;11.88;;